Flight Track Log - Related Links

Times and Time Zones

All times are in EDT time to prevent confusion due to time zone crossing. See the N137TK flight status page for this flight to view local times or setup timezone preferences in your user account.

Time Position Orientation Groundspeed Altitude Reporting Facility
EDT Latitude Longitude Course Direction KTS MPH feet Rate Location/Type
Tue 12:13:28 PM 35.3775 -82.5539 North 168 193 6,200  Level Atlanta Center
Tue 12:14:28 PM 35.3908 -82.6122 286° West 173 199 8,300 1,900 Climbing Atlanta Center
Tue 12:15:28 PM 35.4369 -82.6367 337° Northwest 168 193 10,000 850 Climbing Atlanta Center
Tue 12:16:28 PM 35.5142 -82.6356 North 194 223 10,000 150 Level Atlanta Center
Tue 12:17:00 PM 35.8989 -82.5051 North  Level FlightAware Approximate
Tue 12:17:28 PM 35.5975 -82.6289 North 273 314 10,300  Level Atlanta Center
Tue 12:18:00 PM 35.9765 -82.5000 North  Level FlightAware Approximate
Tue 12:19:28 PM 35.7308 -82.6189 North 234 269 14,000  Level Atlanta Center
Tue 12:20:28 PM 35.7956 -82.6128 North 229 264 15,300 1,300 Climbing Atlanta Center
Tue 12:21:28 PM 35.8622 -82.6089 North 229 264 16,600 1,250 Climbing Atlanta Center
Tue 12:22:28 PM 35.9289 -82.6028 North 234 269 17,800 1,250 Climbing Atlanta Center
Tue 12:23:28 PM 35.9936 -82.5989 North 234 269 19,100 1,250 Climbing Atlanta Center
Tue 12:24:28 PM 36.0561 -82.5953 North 229 264 20,300 1,100 Climbing Atlanta Center
Tue 12:25:28 PM 36.1228 -82.5889 North 235 270 21,300 1,000 Climbing Atlanta Center
Tue 12:26:28 PM 36.1894 -82.5825 North 235 270 22,300 1,050 Climbing Atlanta Center
Tue 12:27:28 PM 36.2581 -82.5789 North 235 270 23,400 950 Climbing Atlanta Center
Tue 12:28:28 PM 36.3269 -82.5725 North 235 270 24,200 850 Climbing Atlanta Center
Tue 12:29:28 PM 36.3956 -82.5686 North 235 270 25,100 900 Climbing Atlanta Center
Tue 12:30:28 PM 36.4644 -82.5622 North 235 270 26,000 450 Climbing Atlanta Center
Tue 12:31:28 PM 36.5414 -82.5556 North 254 292 26,000  Level Atlanta Center
Tue 12:32:28 PM 36.6247 -82.5489 North 282 325 26,000  Level Atlanta Center
Tue 12:33:29 PM 36.7119 -82.5425 North 313 360 26,000  Level Indianapolis Center
Tue 12:34:31 PM 36.8017 -82.5353 North 323 372 26,000  Level Indianapolis Center
Tue 12:35:32 PM 36.8928 -82.5278 North 329 379 26,000  Level Indianapolis Center
Tue 12:36:34 PM 36.9853 -82.5219 North 333 383 26,000  Level Indianapolis Center
Tue 12:37:35 PM 37.0772 -82.5144 North 333 383 26,000  Level Indianapolis Center
Tue 12:38:37 PM 37.1858 -82.5061 North 335 386 26,000  Level Indianapolis Center
Tue 12:39:38 PM 37.2789 -82.4997 North 336 387 26,000  Level Indianapolis Center
Tue 12:40:40 PM 37.3725 -82.4928 North 336 387 26,000  Level Indianapolis Center
Tue 12:41:41 PM 37.4661 -82.4850 North 338 389 26,000  Level Indianapolis Center
Tue 12:42:43 PM 37.5606 -82.4772 North 340 391 26,000  Level Indianapolis Center
Tue 12:43:44 PM 37.6528 -82.4697 North 334 384 26,000  Level Indianapolis Center
Tue 12:44:46 PM 37.7628 -82.4622 North 338 389 26,000  Level Indianapolis Center
Tue 12:45:47 PM 37.8561 -82.4539 North 338 389 26,000  Level Indianapolis Center
Tue 12:46:49 PM 37.9503 -82.4472 North 338 389 26,000  Level Indianapolis Center
Tue 12:47:51 PM 38.0444 -82.4392 North 338 389 26,000  Level Indianapolis Center
Tue 12:48:52 PM 38.1444 -82.4306 North 338 389 26,000  Level Indianapolis Center
Tue 12:49:54 PM 38.2383 -82.4231 North 337 388 26,000  Level Indianapolis Center
Tue 12:50:55 PM 38.3319 -82.4164 North 335 386 26,000  Level Indianapolis Center
Tue 12:51:57 PM 38.4253 -82.3958 10° North 337 388 26,000  Level Indianapolis Center
Tue 12:52:59 PM 38.5172 -82.3739 11° North 335 386 26,000  Level Indianapolis Center
Tue 12:54:00 PM 38.6103 -82.3558 North 336 387 26,000  Level Indianapolis Center
Tue 12:55:02 PM 38.7036 -82.3339 10° North 338 389 26,000  Level Indianapolis Center
Tue 12:56:03 PM 38.7972 -82.3247 North 336 387 26,000  Level Indianapolis Center
Tue 12:57:05 PM 38.8914 -82.3200 North 335 386 26,000  Level Indianapolis Center
Tue 12:58:07 PM 39.0044 -82.3122 North 338 389 26,000  Level Indianapolis Center
Tue 12:59:08 PM 39.0978 -82.3069 North 335 386 26,000  Level Indianapolis Center
Tue 01:00:10 PM 39.1922 -82.3008 North 338 389 26,000  Level Indianapolis Center
Tue 01:01:11 PM 39.2861 -82.2953 North 337 388 26,000  Level Indianapolis Center
Tue 01:02:13 PM 39.3797 -82.2886 North 335 386 26,000  Level Indianapolis Center
Tue 01:03:15 PM 39.4817 -82.2825 North 334 384 26,000  Level Indianapolis Center
Tue 01:04:16 PM 39.5764 -82.2761 North 337 388 26,000  Level Indianapolis Center
Tue 01:05:18 PM 39.6706 -82.2700 North 337 388 26,000  Level Indianapolis Center
Tue 01:06:20 PM 39.7658 -82.2639 North 339 390 26,000  Level Indianapolis Center
Tue 01:07:22 PM 39.8606 -82.2583 North 338 389 26,000  Level Indianapolis Center
Tue 01:08:23 PM 39.9544 -82.2514 North 336 387 26,000  Level Indianapolis Center
Tue 01:09:25 PM 40.0489 -82.2467 North 336 387 26,000  Level Indianapolis Center
Tue 01:10:27 PM 40.1425 -82.2403 North 335 386 26,000  Level Indianapolis Center
Tue 01:11:28 PM 40.2508 -82.2331 North 333 383 26,000  Level Indianapolis Center
Tue 01:12:30 PM 40.3322 -82.2286 North 332 382 26,000  Level Indianapolis Center
Tue 01:13:32 PM 40.4400 -82.2217 North 329 379 26,000  Level Indianapolis Center
Tue 01:14:34 PM 40.5331 -82.2156 North 329 379 26,000  Level Indianapolis Center
Tue 01:15:35 PM 40.6261 -82.2094 North 330 380 26,000 -195 Level Indianapolis Center
Tue 01:16:37 PM 40.7178 -82.2050 North 327 376 25,600 -677 Descending Indianapolis Center
Tue 01:17:39 PM 40.8119 -82.2364 346° North 340 391 24,600 -941 Descending Indianapolis Center
Tue 01:18:19 PM 40.8803 -82.2639 343° North 338 389 24,000 -360 Descending Cleveland Center
Tue 01:19:19 PM 40.9672 -82.2992 343° North 338 389 24,000  Level Cleveland Center
Tue 01:20:19 PM 41.0522 -82.3289 345° North 325 374 24,000  Level Cleveland Center
Tue 01:21:19 PM 41.1372 -82.3586 345° North 317 365 24,000 -750 Level Cleveland Center
Tue 01:22:19 PM 41.2222 -82.3914 344° North 318 366 22,500 -1,800 Descending Cleveland Center
Tue 01:23:19 PM 41.3136 -82.4242 345° North 326 375 20,400 -1,900 Descending Cleveland Center
Tue 01:24:19 PM 41.3942 -82.4569 343° North 336 387 18,700 -1,800 Descending Cleveland Center
Tue 01:25:19 PM 41.4856 -82.4875 346° North 336 387 16,800 -1,950 Descending Cleveland Center
Tue 01:26:19 PM 41.5744 -82.5233 343° North 336 387 14,800 -2,084 Descending Cleveland Center
Tue 01:26:54 PM 41.6325 -82.5472 343° North 330 380 13,500 -2,063 Descending Cleveland Center
Tue 01:27:55 PM 41.7175 -82.5750 346° North 319 367 11,500 -1,918 Descending Cleveland Center
Tue 01:28:56 PM 41.8064 -82.6111 343° North 306 352 9,600 -1,172 Descending Cleveland Center
Tue 01:30:03 PM 41.8917 -82.6333 349° North 267 307 9,000 -703 Descending Cleveland Center
Tue 01:31:04 PM 41.9683 -82.6608 345° North 275 316 8,100 -517 Descending Cleveland Center
Tue 01:31:59 PM 42.0236 -82.7131 325° Northwest 256 295 8,000 -52 Descending Cleveland Center
Tue 01:32:59 PM 42.0786 -82.7736 321° Northwest 259 298 8,000 -248 Level Cleveland Center
Tue 01:34:00 PM 42.1358 -82.8317 323° Northwest 263 303 7,500 -590 Descending Cleveland Center
Tue 01:35:01 PM 42.1950 -82.9011 319° Northwest 274 315 6,800 -689 Descending Cleveland Center
Tue 01:36:02 PM 42.2542 -82.9650 321° Northwest 273 314 6,100 -689 Descending Cleveland Center
Tue 01:37:03 PM 42.3133 -83.0317 320° Northwest 270 311 5,400 -738 Descending Cleveland Center
Tue 01:38:04 PM 42.3744 -83.0958 322° Northwest 272 313 4,600 -689 Descending Cleveland Center
Tue 01:39:05 PM 42.4292 -83.1600 319° Northwest 250 288 4,000 -295 Descending Cleveland Center
Tue 01:40:06 PM 42.4822 -83.2183 321° Northwest 232 267 4,000 -52 Level Cleveland Center
Tue 01:41:00 PM 42.5078 -83.2814 299° West 215 247 3,900 -522 Descending Cleveland Center
Tue 01:42:01 PM 42.5394 -83.3506 302° West 224 258 3,000 -492 Descending Cleveland Center
Tue 01:43:02 PM 42.5733 -83.4169 305° West 183 211 2,900 -148 Descending Cleveland Center
Tue 01:44:03 PM 42.6078 -83.4581 319° Northwest 153 176 2,700 -443 Descending Cleveland Center
Tue 01:45:04 PM 42.6469 -83.4711 346° North 138 159 2,000 -689 Descending Cleveland Center
Tue 01:47:00 PM 42.6500 -83.4167 304° West  Level FlightAware Approximate
Tue 01:54:00 PM 42.6656 -83.4205 304° West  Level Estimated
Tue 01:55:00 PM 42.6656 -83.4205 304° West  Level Estimated

Login

Don't have an account? Register now (free) for customized features, flight alerts, and more!